createdAt,value
2023-02-08T00:00:11.074Z,-1.52
2023-02-08T00:02:38.002Z,-1.01
2023-02-08T00:05:05.566Z,-0.55
2023-02-08T00:07:32.478Z,-0.56
2023-02-08T00:09:59.418Z,-0.99
2023-02-08T00:12:28.290Z,-0.98
2023-02-08T00:14:56.253Z,-0.81
2023-02-08T00:17:23.215Z,-0.80
2023-02-08T00:19:50.164Z,-0.58
2023-02-08T00:22:17.063Z,-0.76
2023-02-08T00:24:43.977Z,-0.98
2023-02-08T00:27:10.885Z,-1.25
2023-02-08T00:29:38.122Z,-1.49
2023-02-08T00:32:05.378Z,-0.94
2023-02-08T00:34:32.453Z,-1.09
2023-02-08T00:36:59.320Z,-1.29
2023-02-08T00:39:26.276Z,-1.29
2023-02-08T00:41:53.230Z,-1.24
2023-02-08T00:44:20.252Z,-1.09
2023-02-08T00:46:47.168Z,-1.09
2023-02-08T00:49:14.099Z,-0.80
2023-02-08T00:51:40.996Z,-1.20
2023-02-08T00:54:14.023Z,-1.49
2023-02-08T00:56:41.362Z,-1.27
2023-02-08T00:59:08.307Z,-1.45
2023-02-08T01:01:35.465Z,-1.31
2023-02-08T01:04:02.736Z,-0.79
2023-02-08T01:06:29.622Z,-1.14
2023-02-08T01:08:56.579Z,-1.20
2023-02-08T01:11:25.466Z,-0.75
2023-02-08T01:13:54.542Z,-0.46
2023-02-08T01:16:27.405Z,-0.45
2023-02-08T01:18:56.743Z,-0.40
2023-02-08T01:21:25.981Z,-0.84
2023-02-08T01:23:53.814Z,-1.19
2023-02-08T01:26:21.823Z,-0.81
2023-02-08T01:28:49.735Z,-1.18
2023-02-08T01:31:21.499Z,-1.20
2023-02-08T01:33:49.189Z,-1.35
2023-02-08T01:36:16.806Z,-0.75
2023-02-08T01:38:45.156Z,-1.50
2023-02-08T01:41:19.692Z,-1.58
2023-02-08T01:44:17.719Z,-1.64
2023-02-08T01:46:47.478Z,-1.77
2023-02-08T01:49:31.334Z,-1.70
2023-02-08T01:52:14.255Z,-1.69
2023-02-08T01:54:46.630Z,-1.07
2023-02-08T01:57:13.917Z,-0.96
2023-02-08T01:59:52.647Z,-1.11
2023-02-08T02:02:22.289Z,-1.52
2023-02-08T02:04:51.657Z,-1.85
2023-02-08T02:07:20.405Z,-1.88
2023-02-08T02:09:56.261Z,-1.49
2023-02-08T02:12:24.132Z,-1.82
2023-02-08T02:14:51.298Z,-1.62
2023-02-08T02:17:20.019Z,-1.99
2023-02-08T02:20:11.230Z,-2.14
2023-02-08T02:22:53.279Z,-2.09
2023-02-08T02:25:48.970Z,-2.44
2023-02-08T02:28:28.117Z,-2.24
2023-02-08T02:31:11.732Z,-2.00
2023-02-08T02:33:47.730Z,-2.17
2023-02-08T02:36:28.837Z,-2.67
2023-02-08T02:39:23.768Z,-2.42
2023-02-08T02:42:17.929Z,-2.25
2023-02-08T02:44:59.723Z,-2.47
2023-02-08T02:47:33.213Z,-2.59
2023-02-08T02:50:19.931Z,-2.63
2023-02-08T02:52:55.017Z,-2.46
2023-02-08T02:55:25.687Z,-2.53
2023-02-08T02:57:54.920Z,-2.46
2023-02-08T03:00:25.333Z,-2.91
2023-02-08T03:02:52.934Z,-2.84
2023-02-08T03:05:19.828Z,-2.72
2023-02-08T03:07:58.546Z,-2.90
2023-02-08T03:10:54.355Z,-2.64
2023-02-08T03:13:33.072Z,-2.97
2023-02-08T03:16:14.850Z,-2.83
2023-02-08T03:19:00.333Z,-2.54
2023-02-08T03:21:53.345Z,-2.38
2023-02-08T03:24:27.252Z,-2.57
2023-02-08T03:27:16.745Z,-2.89
2023-02-08T03:30:09.532Z,-2.99
2023-02-08T03:32:56.333Z,-2.98
2023-02-08T03:35:29.656Z,-3.12
2023-02-08T03:38:15.840Z,-3.25
2023-02-08T03:40:47.926Z,-3.03
2023-02-08T03:43:23.562Z,-3.13
2023-02-08T03:46:21.276Z,-3.25
2023-02-08T03:48:55.081Z,-3.26
2023-02-08T03:51:24.270Z,-3.34
2023-02-08T03:53:53.758Z,-3.30
2023-02-08T03:56:46.220Z,-3.39
2023-02-08T03:59:20.584Z,-3.39
2023-02-08T04:02:08.258Z,-3.28
2023-02-08T04:04:38.147Z,-3.25
2023-02-08T04:07:05.752Z,-3.26
2023-02-08T04:09:32.785Z,-3.27
2023-02-08T04:11:59.668Z,-3.25
2023-02-08T04:14:26.554Z,-3.41
2023-02-08T04:16:53.594Z,-3.56
2023-02-08T04:19:20.546Z,-3.42
2023-02-08T04:21:47.513Z,-3.45
2023-02-08T04:24:14.466Z,-3.44
2023-02-08T04:26:41.309Z,-3.43
2023-02-08T04:29:08.273Z,-3.41
2023-02-08T04:31:35.355Z,-3.42
2023-02-08T04:34:02.939Z,-3.56
2023-02-08T04:36:29.943Z,-3.51
2023-02-08T04:38:56.846Z,-3.44
2023-02-08T04:41:23.834Z,-3.47
2023-02-08T04:43:50.720Z,-3.35
2023-02-08T04:46:17.691Z,-3.42
2023-02-08T04:48:44.684Z,-2.86
2023-02-08T04:51:11.563Z,-3.05
2023-02-08T04:53:38.459Z,-3.21
2023-02-08T04:56:05.565Z,-3.02
2023-02-08T04:58:32.515Z,-2.99
2023-02-08T05:00:59.422Z,-2.71
2023-02-08T05:03:26.358Z,-2.50
2023-02-08T05:05:58.245Z,-2.54
2023-02-08T05:08:26.972Z,-2.66
2023-02-08T05:10:53.945Z,-2.55
2023-02-08T05:13:20.804Z,-2.30
2023-02-08T05:15:47.771Z,-2.55
2023-02-08T05:18:14.680Z,-2.65
2023-02-08T05:20:41.802Z,-2.72
2023-02-08T05:23:08.876Z,-2.78
2023-02-08T05:25:35.753Z,-2.96
2023-02-08T05:28:03.256Z,-2.56
2023-02-08T05:30:30.240Z,-2.34
2023-02-08T05:32:57.152Z,-2.08
2023-02-08T05:35:24.013Z,-1.90
2023-02-08T05:37:50.831Z,-0.81
2023-02-08T05:40:18.085Z,-0.78
2023-02-08T05:42:44.987Z,-1.35
2023-02-08T05:45:11.845Z,-1.24
2023-02-08T05:47:38.715Z,-1.64
2023-02-08T05:50:06.198Z,-0.88
2023-02-08T05:52:33.462Z,-1.04
2023-02-08T05:55:00.411Z,-0.28
2023-02-08T05:57:28.357Z,-0.74
2023-02-08T05:59:56.502Z,-1.23
2023-02-08T06:02:24.471Z,-1.11
2023-02-08T06:04:51.554Z,-0.69
2023-02-08T06:07:18.542Z,-0.14
2023-02-08T06:09:47.579Z,-1.47
2023-02-08T06:12:15.462Z,-2.12
2023-02-08T06:14:42.370Z,-2.32
2023-02-08T06:17:09.262Z,-1.43
2023-02-08T06:19:36.151Z,-1.68
2023-02-08T06:22:03.016Z,-0.76
2023-02-08T06:24:29.992Z,-0.63
2023-02-08T06:26:57.261Z,-0.06
2023-02-08T06:29:24.243Z,0.25
2023-02-08T06:31:51.286Z,-0.80
2023-02-08T06:34:18.199Z,-0.42
2023-02-08T06:36:45.902Z,0.60
2023-02-08T06:39:12.822Z,0.03
2023-02-08T06:41:39.703Z,-0.78
2023-02-08T06:44:06.769Z,-0.49
2023-02-08T06:46:34.173Z,-0.31
2023-02-08T06:49:01.076Z,0.28
2023-02-08T06:51:28.128Z,0.79
2023-02-08T06:53:55.202Z,1.25
2023-02-08T06:56:22.553Z,0.86
2023-02-08T06:58:49.457Z,-0.05
2023-02-08T07:01:16.556Z,-0.80
2023-02-08T07:03:43.476Z,-1.27
2023-02-08T07:06:14.768Z,-1.41
2023-02-08T07:08:42.130Z,-1.09
2023-02-08T07:11:11.459Z,-1.11
2023-02-08T07:13:39.019Z,-0.76
2023-02-08T07:16:07.109Z,-0.63
2023-02-08T07:18:34.450Z,-0.65
2023-02-08T07:21:01.751Z,-1.08
2023-02-08T07:23:28.753Z,-0.03
2023-02-08T07:26:03.085Z,0.35
2023-02-08T07:28:30.769Z,0.44
2023-02-08T07:30:58.141Z,0.32
2023-02-08T07:33:25.984Z,0.31
2023-02-08T07:35:52.894Z,0.21
2023-02-08T07:38:20.802Z,-0.08
2023-02-08T07:40:48.082Z,-0.11
2023-02-08T07:43:15.049Z,-0.06
2023-02-08T07:45:52.244Z,0.51
2023-02-08T07:48:19.205Z,0.32
2023-02-08T07:50:46.116Z,0.24
2023-02-08T07:53:13.057Z,0.61
2023-02-08T07:55:39.892Z,-0.09
2023-02-08T07:58:06.784Z,-0.18
2023-02-08T08:00:33.694Z,-0.27
2023-02-08T08:03:00.734Z,-0.03
2023-02-08T08:05:27.626Z,-0.59
2023-02-08T08:07:54.479Z,-0.86
2023-02-08T08:10:21.508Z,-0.81
2023-02-08T08:12:48.391Z,-1.23
2023-02-08T08:15:15.337Z,-1.05
2023-02-08T08:17:42.383Z,-0.67
2023-02-08T08:20:11.347Z,-0.54
2023-02-08T08:22:38.319Z,-0.73
2023-02-08T08:25:06.412Z,-0.81
2023-02-08T08:27:34.062Z,-1.17
2023-02-08T08:30:01.929Z,-1.15
2023-02-08T08:32:28.984Z,-1.01
2023-02-08T08:34:55.865Z,-0.82
2023-02-08T08:37:22.914Z,-0.86
2023-02-08T08:39:49.873Z,-0.87
2023-02-08T08:42:16.819Z,-1.06
2023-02-08T08:44:44.774Z,-1.45
2023-02-08T08:47:12.636Z,-1.05
2023-02-08T08:49:39.738Z,-1.41
2023-02-08T08:52:08.036Z,-1.21
2023-02-08T08:54:35.444Z,-1.34
2023-02-08T08:57:05.885Z,-1.62
2023-02-08T08:59:33.657Z,-1.39
2023-02-08T09:02:00.885Z,-1.45
2023-02-08T09:04:27.839Z,-1.56
2023-02-08T09:06:54.980Z,-1.21
2023-02-08T09:09:22.848Z,-0.88
2023-02-08T09:11:50.041Z,-1.04
2023-02-08T09:14:19.530Z,-0.96
2023-02-08T09:16:48.239Z,-1.01
2023-02-08T09:19:16.148Z,-0.85
2023-02-08T09:21:43.261Z,-1.16
2023-02-08T09:24:10.442Z,-1.23
2023-02-08T09:26:38.298Z,-0.82
2023-02-08T09:29:06.608Z,-0.96
2023-02-08T09:31:39.795Z,-0.87
2023-02-08T09:34:07.306Z,-1.06
2023-02-08T09:36:37.652Z,-1.19
2023-02-08T09:39:10.294Z,-1.16
2023-02-08T09:42:18.949Z,-1.29
2023-02-08T09:45:08.817Z,-1.31
2023-02-08T09:47:37.810Z,-1.25
2023-02-08T09:50:13.132Z,-1.27
2023-02-08T09:53:03.180Z,-1.16
2023-02-08T09:55:32.931Z,-0.85
2023-02-08T09:58:03.268Z,-1.09
2023-02-08T10:00:42.616Z,-0.85
2023-02-08T10:03:25.793Z,-0.79
2023-02-08T10:05:52.958Z,-0.85
2023-02-08T10:08:20.412Z,-0.84
2023-02-08T10:10:55.773Z,-0.34
2023-02-08T10:13:50.336Z,-0.64
2023-02-08T10:17:01.473Z,-0.05
2023-02-08T10:19:47.088Z,-0.39
2023-02-08T10:22:41.081Z,-0.28
2023-02-08T10:25:21.888Z,-0.53
2023-02-08T10:28:46.112Z,-1.19
2023-02-08T10:31:34.161Z,-1.50
2023-02-08T10:37:18.074Z,-0.86
2023-02-08T10:39:47.882Z,-1.13
2023-02-08T10:42:18.286Z,-1.33
2023-02-08T10:45:04.073Z,-1.40
2023-02-08T10:47:53.626Z,-1.60
2023-02-08T10:50:42.071Z,-1.47
2023-02-08T10:53:18.124Z,-1.41
2023-02-08T10:55:55.077Z,-1.32
2023-02-08T10:58:33.814Z,-1.67
2023-02-08T11:01:07.310Z,-1.73
2023-02-08T11:03:56.180Z,-1.62
2023-02-08T11:06:32.000Z,-1.51
2023-02-08T11:09:02.205Z,-1.46
2023-02-08T11:11:36.853Z,-1.43
2023-02-08T11:14:16.872Z,-1.09
2023-02-08T11:16:53.801Z,-1.06
2023-02-08T11:19:37.984Z,-1.09
2023-02-08T11:22:09.525Z,-1.13
2023-02-08T11:24:43.999Z,-0.92
2023-02-08T11:27:32.211Z,-0.90
2023-02-08T11:30:17.670Z,-1.49
2023-02-08T11:32:50.668Z,-1.60
2023-02-08T11:35:23.360Z,-1.52
2023-02-08T11:37:55.065Z,-1.65
2023-02-08T11:40:32.605Z,-1.52
2023-02-08T11:43:01.282Z,-1.72
2023-02-08T11:45:31.818Z,-1.31
2023-02-08T11:48:01.797Z,-1.26
2023-02-08T11:50:34.788Z,-1.21
2023-02-08T11:53:04.516Z,-1.43
2023-02-08T11:55:33.928Z,-1.22
2023-02-08T11:58:12.988Z,-1.26
2023-02-08T12:00:41.100Z,-0.86
2023-02-08T12:03:25.439Z,-1.01
2023-02-08T12:06:34.057Z,-0.95
2023-02-08T12:09:20.116Z,-1.26
2023-02-08T12:11:49.227Z,-1.38
2023-02-08T12:14:27.913Z,-1.78
2023-02-08T12:17:20.250Z,-1.46
2023-02-08T12:19:59.257Z,-1.58
2023-02-08T12:22:27.696Z,-1.59
2023-02-08T12:25:20.388Z,-1.64
2023-02-08T12:28:12.014Z,-0.71
2023-02-08T12:31:17.156Z,0.31
2023-02-08T12:34:10.622Z,1.89
2023-02-08T12:37:25.274Z,1.43
2023-02-08T12:40:29.010Z,1.69
2023-02-08T12:43:20.893Z,1.53
2023-02-08T12:45:56.843Z,1.89
2023-02-08T12:48:35.666Z,1.93
2023-02-08T12:51:37.519Z,0.87
2023-02-08T12:54:14.716Z,1.89
2023-02-08T12:56:53.612Z,2.15
2023-02-08T12:59:35.864Z,2.33
2023-02-08T13:02:26.886Z,2.14
2023-02-08T13:04:59.715Z,1.90
2023-02-08T13:07:34.433Z,1.99
2023-02-08T13:10:07.220Z,0.57
2023-02-08T13:12:43.236Z,0.94
2023-02-08T13:15:28.520Z,0.62
2023-02-08T13:18:10.145Z,-0.08
2023-02-08T13:20:43.337Z,0.08
2023-02-08T13:23:25.067Z,0.54
2023-02-08T13:26:07.041Z,1.15
2023-02-08T13:28:34.483Z,2.33
2023-02-08T13:31:11.949Z,2.62
2023-02-08T13:34:01.282Z,2.22
2023-02-08T13:36:37.260Z,2.61
2023-02-08T13:39:07.925Z,1.89
2023-02-08T13:41:36.514Z,1.98
2023-02-08T13:44:07.317Z,0.88
2023-02-08T13:46:45.900Z,0.24
2023-02-08T13:49:49.865Z,0.12
2023-02-08T13:52:47.651Z,-0.15
2023-02-08T13:55:39.286Z,-0.39
2023-02-08T13:58:28.204Z,-0.13
2023-02-08T14:00:55.096Z,-0.65
2023-02-08T14:03:35.422Z,-0.32
2023-02-08T14:06:08.133Z,-0.49
2023-02-08T14:09:25.545Z,-0.39
2023-02-08T14:12:02.848Z,-0.77
2023-02-08T14:14:38.668Z,-0.74
2023-02-08T14:17:05.514Z,-0.80
2023-02-08T14:19:35.430Z,-0.89
2023-02-08T14:22:18.366Z,-0.58
2023-02-08T14:24:50.295Z,-0.69
2023-02-08T14:27:33.899Z,-0.78
2023-02-08T14:30:09.204Z,-0.52
2023-02-08T14:32:39.961Z,-0.90
2023-02-08T14:35:08.503Z,-1.09
2023-02-08T14:37:36.827Z,-1.13
2023-02-08T14:40:24.628Z,-0.59
2023-02-08T14:43:00.631Z,-1.15
2023-02-08T14:45:32.301Z,-1.15
2023-02-08T14:48:17.776Z,-1.18
2023-02-08T14:51:12.014Z,-1.19
2023-02-08T14:54:03.839Z,-1.25
2023-02-08T14:56:50.458Z,-1.11
2023-02-08T14:59:20.945Z,-1.38
2023-02-08T15:01:56.477Z,-1.23
2023-02-08T15:04:23.457Z,-1.37
2023-02-08T15:07:13.392Z,-1.47
2023-02-08T15:09:42.833Z,-1.46
2023-02-08T15:12:46.860Z,-1.32
2023-02-08T15:15:31.998Z,-1.44
2023-02-08T15:18:00.207Z,-1.21
2023-02-08T15:20:30.526Z,-1.12
2023-02-08T15:23:04.297Z,-1.32
2023-02-08T15:25:36.976Z,-1.31
2023-02-08T15:28:17.937Z,-1.30
2023-02-08T15:30:45.682Z,-1.54
2023-02-08T15:33:21.388Z,-1.75
2023-02-08T15:36:06.568Z,-1.98
2023-02-08T15:38:37.536Z,-1.97
2023-02-08T15:41:10.988Z,-2.04
2023-02-08T15:43:39.344Z,-2.03
2023-02-08T15:46:24.802Z,-2.12
2023-02-08T15:48:52.974Z,-2.08
2023-02-08T15:51:23.265Z,-2.20
2023-02-08T15:53:53.653Z,-2.06
2023-02-08T15:56:36.430Z,-2.05
2023-02-08T15:59:07.663Z,-2.07
2023-02-08T16:01:35.171Z,-2.05
2023-02-08T16:04:12.645Z,-2.06
2023-02-08T16:06:46.715Z,-2.06
2023-02-08T16:09:19.354Z,-2.07
2023-02-08T16:11:50.151Z,-2.19
2023-02-08T16:14:24.249Z,-2.31
2023-02-08T16:16:57.005Z,-2.27
2023-02-08T16:19:29.635Z,-2.36
2023-02-08T16:22:21.598Z,-2.26
2023-02-08T16:24:51.020Z,-2.43
2023-02-08T16:27:25.839Z,-2.38
2023-02-08T16:29:53.360Z,-2.40
2023-02-08T16:32:29.337Z,-2.43
2023-02-08T16:34:56.751Z,-2.39
2023-02-08T16:37:30.849Z,-2.45
2023-02-08T16:40:24.011Z,-2.58
2023-02-08T16:43:13.481Z,-2.57
2023-02-08T16:45:40.536Z,-2.60
2023-02-08T16:48:36.151Z,-2.52
2023-02-08T16:51:06.072Z,-2.52
2023-02-08T16:53:41.869Z,-2.53
2023-02-08T16:56:11.519Z,-2.47
2023-02-08T16:58:38.806Z,-2.54
2023-02-08T17:01:06.358Z,-2.46
2023-02-08T17:03:33.380Z,-2.48
2023-02-08T17:06:01.141Z,-2.41
2023-02-08T17:08:28.257Z,-2.55
2023-02-08T17:10:59.208Z,-2.50
2023-02-08T17:13:29.538Z,-2.51
2023-02-08T17:16:00.190Z,-2.54
2023-02-08T17:18:27.301Z,-2.42
2023-02-08T17:20:59.649Z,-2.52
2023-02-08T17:23:26.803Z,-2.50
2023-02-08T17:25:55.022Z,-2.52
2023-02-08T17:28:22.774Z,-2.52
2023-02-08T17:30:50.703Z,-2.47
2023-02-08T17:33:20.662Z,-2.58
2023-02-08T17:35:50.772Z,-2.46
2023-02-08T17:38:18.994Z,-2.48
2023-02-08T17:40:46.117Z,-2.53
2023-02-08T17:43:13.762Z,-2.64
2023-02-08T17:45:42.857Z,-2.62
2023-02-08T17:48:10.310Z,-2.57
2023-02-08T17:50:37.410Z,-2.54
2023-02-08T17:53:04.471Z,-2.59
2023-02-08T17:55:31.702Z,-2.58
2023-02-08T17:57:58.828Z,-2.64
2023-02-08T18:00:26.320Z,-2.61
2023-02-08T18:02:55.499Z,-2.61
2023-02-08T18:05:25.633Z,-2.62
2023-02-08T18:07:54.696Z,-2.67
2023-02-08T18:10:21.943Z,-2.72
2023-02-08T18:12:49.070Z,-2.57
2023-02-08T18:15:20.206Z,-2.74
2023-02-08T18:17:47.850Z,-2.75
2023-02-08T18:20:16.162Z,-2.80
2023-02-08T18:22:44.115Z,-2.68
2023-02-08T18:25:13.112Z,-2.63
2023-02-08T18:27:40.337Z,-2.61
2023-02-08T18:30:08.632Z,-2.61
2023-02-08T18:32:35.663Z,-2.59
2023-02-08T18:35:04.371Z,-2.64
2023-02-08T18:37:32.342Z,-2.69
2023-02-08T18:40:00.204Z,-2.62
2023-02-08T18:42:27.356Z,-2.58
2023-02-08T18:44:54.704Z,-2.58
2023-02-08T18:47:21.706Z,-2.66
2023-02-08T18:49:56.212Z,-2.73
2023-02-08T18:52:24.004Z,-2.61
2023-02-08T18:54:51.288Z,-2.74
2023-02-08T18:57:18.627Z,-2.63
2023-02-08T18:59:45.625Z,-2.73
2023-02-08T19:02:19.189Z,-2.82
2023-02-08T19:04:46.296Z,-2.72
2023-02-08T19:07:14.028Z,-2.70
2023-02-08T19:09:41.403Z,-2.88
2023-02-08T19:12:09.285Z,-2.91
2023-02-08T19:14:36.670Z,-2.75
2023-02-08T19:17:04.039Z,-2.98
2023-02-08T19:19:31.164Z,-3.05
2023-02-08T19:21:58.335Z,-3.00
2023-02-08T19:24:25.382Z,-3.10
2023-02-08T19:26:52.372Z,-2.97
2023-02-08T19:29:22.933Z,-2.81
2023-02-08T19:31:50.682Z,-3.00
2023-02-08T19:34:19.111Z,-3.13
2023-02-08T19:36:54.200Z,-3.16
2023-02-08T19:39:26.221Z,-3.03
2023-02-08T19:41:54.367Z,-3.03
2023-02-08T19:44:22.064Z,-3.12
2023-02-08T19:46:51.293Z,-2.98
2023-02-08T19:49:18.496Z,-3.05
2023-02-08T19:51:46.110Z,-3.16
2023-02-08T19:54:17.042Z,-3.16
2023-02-08T19:56:44.570Z,-3.07
2023-02-08T19:59:27.387Z,-3.14
2023-02-08T20:01:55.439Z,-3.13
2023-02-08T20:04:23.103Z,-2.98
2023-02-08T20:06:54.379Z,-3.02
2023-02-08T20:09:21.980Z,-3.00
2023-02-08T20:11:56.961Z,-3.00
2023-02-08T20:14:25.858Z,-2.93
2023-02-08T20:16:52.947Z,-3.03
2023-02-08T20:19:20.026Z,-2.89
2023-02-08T20:21:47.054Z,-2.94
2023-02-08T20:24:14.106Z,-2.77
2023-02-08T20:26:43.989Z,-2.74
2023-02-08T20:29:12.009Z,-2.73
2023-02-08T20:31:42.716Z,-2.77
2023-02-08T20:34:13.219Z,-2.88
2023-02-08T20:36:49.714Z,-2.81
2023-02-08T20:39:21.852Z,-2.87
2023-02-08T20:41:49.243Z,-2.67
2023-02-08T20:44:18.350Z,-2.65
2023-02-08T20:46:46.655Z,-2.89
2023-02-08T20:49:19.449Z,-2.84
2023-02-08T20:51:46.360Z,-2.81
2023-02-08T20:54:13.337Z,-2.89
2023-02-08T20:56:40.322Z,-2.88
2023-02-08T20:59:10.415Z,-2.89
2023-02-08T21:01:37.515Z,-2.84
2023-02-08T21:04:05.625Z,-2.74
2023-02-08T21:06:35.200Z,-2.83
2023-02-08T21:09:08.085Z,-2.87
2023-02-08T21:11:35.595Z,-2.90
2023-02-08T21:14:03.793Z,-2.99
2023-02-08T21:16:31.238Z,-2.98
2023-02-08T21:18:58.689Z,-2.98
2023-02-08T21:21:26.537Z,-2.90
2023-02-08T21:23:53.552Z,-2.99
2023-02-08T21:26:21.680Z,-3.09
2023-02-08T21:28:52.047Z,-3.14
2023-02-08T21:31:22.324Z,-3.08
2023-02-08T21:33:50.745Z,-3.08
2023-02-08T21:36:20.659Z,-3.09
2023-02-08T21:38:47.916Z,-2.91
2023-02-08T21:41:22.052Z,-3.13
2023-02-08T21:43:50.204Z,-2.97
2023-02-08T21:46:18.045Z,-3.14
2023-02-08T21:49:04.000Z,-3.05
2023-02-08T21:51:49.581Z,-3.08
2023-02-08T21:54:37.839Z,-3.16
2023-02-08T21:57:07.167Z,-2.99
2023-02-08T21:59:36.937Z,-3.04
2023-02-08T22:02:07.891Z,-3.05
2023-02-08T22:04:54.974Z,-3.16
2023-02-08T22:07:23.424Z,-3.15
2023-02-08T22:09:50.784Z,-3.07
2023-02-08T22:12:23.341Z,-2.90
2023-02-08T22:14:50.991Z,-2.87
2023-02-08T22:17:18.426Z,-2.95
2023-02-08T22:19:45.353Z,-2.93
2023-02-08T22:22:12.427Z,-3.05
2023-02-08T22:24:39.440Z,-3.00
2023-02-08T22:27:06.457Z,-3.17
2023-02-08T22:29:33.502Z,-3.10
2023-02-08T22:32:01.258Z,-3.14
2023-02-08T22:34:28.633Z,-3.03
2023-02-08T22:36:55.666Z,-3.19
2023-02-08T22:39:23.013Z,-3.13
2023-02-08T22:41:49.937Z,-3.09
2023-02-08T22:44:17.080Z,-2.88
2023-02-08T22:46:44.095Z,-2.95
2023-02-08T22:49:11.008Z,-2.88
2023-02-08T22:51:38.286Z,-2.77
2023-02-08T22:54:05.261Z,-2.78
2023-02-08T22:56:32.653Z,-2.76
2023-02-08T22:59:00.680Z,-2.78
2023-02-08T23:01:28.257Z,-2.96
2023-02-08T23:03:55.182Z,-2.86
2023-02-08T23:06:22.172Z,-2.88
2023-02-08T23:08:49.272Z,-2.91
2023-02-08T23:11:16.809Z,-2.91
2023-02-08T23:13:44.010Z,-2.85
2023-02-08T23:16:15.850Z,-2.89
2023-02-08T23:18:43.618Z,-2.99
2023-02-08T23:21:14.006Z,-2.87
2023-02-08T23:23:41.190Z,-2.94
2023-02-08T23:26:10.877Z,-2.94
2023-02-08T23:28:38.102Z,-3.00
2023-02-08T23:31:07.408Z,-2.78
2023-02-08T23:33:35.133Z,-2.76
2023-02-08T23:36:09.440Z,-2.69
2023-02-08T23:38:36.363Z,-2.98
2023-02-08T23:41:08.633Z,-2.86
2023-02-08T23:43:36.109Z,-2.90
2023-02-08T23:46:27.360Z,-2.92
2023-02-08T23:48:55.198Z,-3.05
2023-02-08T23:51:24.019Z,-3.01
2023-02-08T23:53:51.865Z,-3.18
2023-02-08T23:56:25.267Z,-3.30
2023-02-08T23:58:55.144Z,-3.38
